Rankings de siempre
Mejores tiempos personales válidos de equipo a través de todos los eventos y temporadas. Cada equipo aparece una vez por división.
Busca por nombre y abre la página donde está clasificado este récord de división.
23,833 equipos clasificados
| Pos. | Pos. AG | Equipo | Nacionalidad | Categoría de edad | TiempoMejor tiempo | Diferencia |
|---|---|---|---|---|---|---|
| 4076 | #1770 | Robin Marron & Jean LoquetFRA · M 30-34 · AG #1770 | FRA | M 30-34 | 1:01:56 | +13:25 |
| 4077 | #1771 | Andrey Kalinin & Evgeny KalininRUS · M 30-34 · AG #1771 | RUS | M 30-34 | 1:01:57 | +13:26 |
| 4078 | #22 | Ian Reid & Ben CourtGBR · M 50-54 · AG #22 | GBR | M 50-54 | 1:01:57 | +13:26 |
| 4079 | #378 | Larry Wallace & Tommy ZamoraUSA · M 40-44 · AG #378 | USA | M 40-44 | 1:01:57 | +13:26 |
| 4080 | -- | Simon Callanan & Conor DohenyM MU29 | -- | M MU29 | 1:01:57 | +13:26 |
| 4081 | #1774 | Stanislaus Vetter & Julian DeppeGER · M 30-34 · AG #1774 | GER | M 30-34 | 1:01:57 | +13:26 |
| 4082 | #379 | Markus Van Tilburg & Patrick Pascal GayerGER · M 40-44 · AG #379 | GER | M 40-44 | 1:01:57 | +13:26 |
| 4083 | #1775 | Alexandre Abbas & Nhick DampouyaFRA · M 30-34 · AG #1775 | FRA | M 30-34 | 1:01:57 | +13:26 |
| 4084 | #1776 | Frederic Gambarutto & Julien EpaleFRA · M 30-34 · AG #1776 | FRA | M 30-34 | 1:01:57 | +13:26 |
| 4085 | #1772 | Sam Dewar & Robbie FiferGBR · M 30-34 · AG #1772 | GBR | M 30-34 | 1:01:57 | +13:26 |
| 4086 | #1773 | Théo Restancourt & Felix RestancourtFRA · M 30-34 · AG #1773 | FRA | M 30-34 | 1:01:57 | +13:26 |
| 4087 | #1777 | Iván Martos & Sergio López FornasESP · M 30-34 · AG #1777 | ESP | M 30-34 | 1:01:57 | +13:26 |
| 4088 | #855 | Maxime Moulin & Loïc TambutteFRA · M 25-29 · AG #855 | FRA | M 25-29 | 1:01:58 | +13:27 |
| 4089 | #503 | Kevin Hynes & Michael WardIRL · M 35-39 · AG #503 | IRL | M 35-39 | 1:01:58 | +13:27 |
| 4090 | -- | Maad Eleiwi & Daan KettenburgM MU29 | -- | M MU29 | 1:01:58 | +13:27 |
| 4091 | #1779 | Ben Garner & Damian RedheadENG · M 30-34 · AG #1779 | ENG | M 30-34 | 1:01:58 | +13:27 |
| 4092 | #1778 | Mark Smith & Joe BaileyGBR · M 30-34 · AG #1778 | GBR | M 30-34 | 1:01:58 | +13:27 |
| 4093 | #502 | Kris Linton & Frankie ThorogoodGBR · M 35-39 · AG #502 | GBR | M 35-39 | 1:01:58 | +13:27 |
| 4094 | #23 | Gordy Bromidge & Ron SmithGBR · M 50-54 · AG #23 | GBR | M 50-54 | 1:01:58 | +13:27 |
| 4095 | #504 | Filipe Costa & Ricardo BarrosPOR · M 35-39 · AG #504 | POR | M 35-39 | 1:01:58 | +13:27 |
| 4096 | #382 | Johan Cajdert & Claes IvarssonSWE · M 40-44 · AG #382 | SWE | M 40-44 | 1:01:59 | +13:28 |
| 4097 | #505 | Fredrik Malvezzi & Sebastian KarlssonSWE · M 35-39 · AG #505 | SWE | M 35-39 | 1:01:59 | +13:28 |
| 4098 | #285 | Brendan Thompson & Christopher WhiteGBR · M 16-24 · AG #285 | GBR | M 16-24 | 1:01:59 | +13:28 |
| 4099 | #507 | 龙龙 赵 & 锋 陈CHN · M 35-39 · AG #507 | CHN | M 35-39 | 1:01:59 | +13:28 |
| 4100 | #506 | Maxime Laurey & Julien LyneelFRA · M 35-39 · AG #506 | FRA | M 35-39 | 1:01:59 | +13:28 |
Página 164 de 954